Time;durP1;ratioP1;P1;durP2;ratioP2;P2;SDS_P1;SDS_P2;PMS_P1;PMS_P2;Temp;Humidity;BMP_temperature;BMP_pressure;BME280_temperature;BME280_humidity;BME280_pressure;Samples;Min_cycle;Max_cycle;Signal;HPM_P1;HPM_P2
2023/09/10 06:47:27;;;;;;;12.67;11.47;;;;;;;;;;5240980;23;20701;-90
2023/09/10 06:50:00;;;;;;;12.50;11.40;;;;;;;;;;4933857;29;20635;-91
2023/09/10 06:52:28;;;;;;;13.53;12.23;;;;;;;;;;4899015;29;20765;-89
2023/09/10 06:54:58;;;;;;;13.10;11.80;;;;;;;;;;4913320;29;21230;-90
2023/09/10 06:57:32;;;;;;;13.77;12.40;;;;;;;;;;4914193;29;20673;-90
2023/09/10 07:00:00;;;;;;;12.70;11.60;;;;;;;;;;4895715;29;20601;-89
2023/09/10 07:02:30;;;;;;;12.93;11.60;;;;;;;;;;4907554;29;20985;-89
2023/09/10 07:05:00;;;;;;;15.43;11.67;;;;;;;;;;4942001;29;20652;-89
2023/09/10 07:07:28;;;;;;;14.50;13.20;;;;;;;;;;4944665;29;20676;-89
2023/09/10 07:09:57;;;;;;;13.03;11.60;;;;;;;;;;4927517;29;20672;-89
2023/09/10 07:12:25;;;;;;;14.20;12.97;;;;;;;;;;4927690;29;20660;-90
2023/09/10 07:14:56;;;;;;;13.10;11.80;;;;;;;;;;4942846;29;20668;-89
2023/09/10 07:17:26;;;;;;;12.13;11.10;;;;;;;;;;4927072;29;20783;-90
2023/09/10 07:19:57;;;;;;;15.03;13.40;;;;;;;;;;4951091;28;20640;-90
2023/09/10 07:25:36;;;;;;;14.17;12.93;;;;;;;;;;4918819;29;20702;-91
2023/09/10 07:28:10;;;;;;;14.50;13.20;;;;;;;;;;4891191;29;20645;-90
2023/09/10 07:30:38;;;;;;;16.10;13.87;;;;;;;;;;4901482;29;20698;-88
2023/09/10 07:33:07;;;;;;;14.63;12.93;;;;;;;;;;4903514;29;20677;-89
2023/09/10 07:35:38;;;;;;;16.17;14.67;;;;;;;;;;4919616;29;20673;-90
2023/09/10 07:38:43;;;;;;;15.80;14.13;;;;;;;;;;4921002;29;20630;-89
2023/09/10 07:41:16;;;;;;;17.57;15.97;;;;;;;;;;4903284;29;20678;-90
2023/09/10 07:43:45;;;;;;;17.77;15.67;;;;;;;;;;4969979;23;20702;-91
2023/09/10 07:46:41;;;;;;;17.70;16.00;;;;;;;;;;5427446;23;20736;-89
2023/09/10 07:49:10;;;;;;;15.37;13.87;;;;;;;;;;4902562;29;20654;-90
2023/09/10 07:51:42;;;;;;;15.97;14.57;;;;;;;;;;4917210;29;20697;-90
2023/09/10 08:09:51;;;;;;;19.50;15.97;;;;;;;;;;5130995;23;20899;-86
2023/09/10 08:50:05;;;;;;;15.47;13.97;;;;;;;;;;5122226;23;20722;-86
2023/09/10 09:29:59;;;;;;;11.67;10.97;;;;;;;;;;4873008;29;20692;-87
2023/09/10 09:51:50;;;;;;;13.13;11.93;;;;;;;;;;5031905;23;20655;-91
2023/09/10 09:54:37;;;;;;;13.50;12.20;;;;;;;;;;4912461;29;20750;-90
2023/09/10 09:57:09;;;;;;;14.73;13.20;;;;;;;;;;4924012;29;20763;-92
2023/09/10 09:59:45;;;;;;;12.00;11.10;;;;;;;;;;4917254;29;20958;-90
2023/09/10 10:02:21;;;;;;;13.00;11.80;;;;;;;;;;4941704;29;20631;-90
2023/09/10 10:05:16;;;;;;;17.57;11.63;;;;;;;;;;4924198;29;20672;-90
2023/09/10 10:07:55;;;;;;;13.30;12.00;;;;;;;;;;4934033;29;20629;-90
2023/09/10 10:10:40;;;;;;;12.20;11.10;;;;;;;;;;4903669;29;20668;-91
2023/09/10 10:13:10;;;;;;;13.47;12.17;;;;;;;;;;4942273;29;20632;-89
2023/09/10 10:15:48;;;;;;;11.87;10.97;;;;;;;;;;4945838;28;20647;-87
2023/09/10 10:18:29;;;;;;;14.00;12.60;;;;;;;;;;4953047;29;20612;-88
2023/09/10 10:21:06;;;;;;;11.17;10.37;;;;;;;;;;4943757;28;20620;-89
2023/09/10 11:15:38;;;;;;;11.80;11.10;;;;;;;;;;5302160;23;20693;-91
2023/09/10 11:18:51;;;;;;;13.40;12.23;;;;;;;;;;4898370;29;20706;-92
2023/09/10 11:34:29;;;;;;;;;;;;;;;;;;;;;
2023/09/10 11:50:56;;;;;;;12.30;11.60;;;;;;;;;;4945782;28;21201;-89
2023/09/10 11:53:26;;;;;;;12.00;11.20;;;;;;;;;;4927870;29;20644;-89
2023/09/10 11:56:05;;;;;;;12.17;11.40;;;;;;;;;;4943271;29;20651;-88
2023/09/10 11:58:37;;;;;;;12.33;11.33;;;;;;;;;;4922459;29;20640;-89
2023/09/10 12:01:06;;;;;;;12.60;11.40;;;;;;;;;;4934301;29;20665;-90
2023/09/10 12:03:45;;;;;;;13.67;12.57;;;;;;;;;;4930804;29;20758;-89
2023/09/10 12:06:16;;;;;;;13.07;12.07;;;;;;;;;;4935673;29;21230;-89
2023/09/10 12:08:49;;;;;;;14.77;12.23;;;;;;;;;;4916693;29;20602;-85
2023/09/10 12:11:36;;;;;;;14.83;11.83;;;;;;;;;;4931423;23;20668;-90
2023/09/10 12:16:47;;;;;;;12.17;11.30;;;;;;;;;;4917607;29;21299;-78
2023/09/10 12:19:17;;;;;;;11.40;10.67;;;;;;;;;;5014400;23;20736;-89
2023/09/10 15:40:42;;;;;;;9.97;8.97;;;;;;;;;;4932270;29;20671;-87
2023/09/10 15:43:11;;;;;;;12.53;9.30;;;;;;;;;;4946756;29;20701;-88
2023/09/10 15:45:41;;;;;;;10.67;9.03;;;;;;;;;;5041324;23;21044;-85
2023/09/10 15:48:12;;;;;;;13.13;9.07;;;;;;;;;;4936434;29;20668;-86
2023/09/10 15:50:54;;;;;;;10.43;8.80;;;;;;;;;;5103637;23;20701;-87
2023/09/10 15:53:39;;;;;;;12.10;9.07;;;;;;;;;;4929992;29;20646;-88
2023/09/10 15:56:11;;;;;;;9.90;8.90;;;;;;;;;;4931486;29;20630;-88
2023/09/10 15:58:50;;;;;;;11.37;9.07;;;;;;;;;;5049112;23;20685;-89
2023/09/10 16:23:20;;;;;;;12.20;11.00;;;;;;;;;;5623950;23;20692;-89
2023/09/10 16:25:53;;;;;;;9.50;8.60;;;;;;;;;;4916449;29;20616;-89
2023/09/10 16:28:22;;;;;;;12.80;8.57;;;;;;;;;;4913476;29;21130;-90
2023/09/10 16:30:59;;;;;;;10.17;9.13;;;;;;;;;;4915743;29;20653;-90
2023/09/10 16:33:55;;;;;;;15.33;9.47;;;;;;;;;;4902238;29;20660;-90
2023/09/10 16:36:24;;;;;;;10.67;9.50;;;;;;;;;;4917684;29;20693;-87
2023/09/10 16:38:58;;;;;;;9.43;8.80;;;;;;;;;;4946099;29;21219;-90
2023/09/10 16:41:57;;;;;;;;;;;;;;;;;;;;;
2023/09/10 16:47:48;;;;;;;11.47;10.17;;;;;;;;;;4924820;29;20667;-88
2023/09/10 16:50:57;;;;;;;10.57;9.47;;;;;;;;;;4941375;29;20653;-90
2023/09/10 16:54:24;;;;;;;11.33;9.80;;;;;;;;;;4941698;29;20644;-89
2023/09/10 17:07:06;;;;;;;10.70;9.83;;;;;;;;;;4973347;28;20671;-88
2023/09/10 17:09:55;;;;;;;;;;;;;;;;;;;;;
2023/09/10 17:12:56;;;;;;;10.83;9.63;;;;;;;;;;1472326;26;20671;-88
2023/09/10 17:15:30;;;;;;;10.50;9.60;;;;;;;;;;4952980;29;20629;-88
2023/09/10 17:17:59;;;;;;;9.37;8.67;;;;;;;;;;4948576;29;20746;-89
2023/09/10 17:20:27;;;;;;;9.60;8.80;;;;;;;;;;4926020;29;20632;-89
2023/09/10 17:23:02;;;;;;;11.20;10.10;;;;;;;;;;4914436;29;20656;-91
2023/09/10 17:25:38;;;;;;;10.20;9.40;;;;;;;;;;4948248;29;21252;-90
2023/09/10 17:28:10;;;;;;;9.20;8.70;;;;;;;;;;4928995;29;20595;-89
2023/09/10 17:30:49;;;;;;;10.47;9.57;;;;;;;;;;4940829;29;20640;-88
2023/09/10 17:33:20;;;;;;;14.20;10.00;;;;;;;;;;4953269;29;20612;-88
2023/09/10 17:35:49;;;;;;;10.60;9.60;;;;;;;;;;4935262;29;20629;-88
2023/09/10 17:38:17;;;;;;;15.33;10.37;;;;;;;;;;4926052;29;20676;-87
2023/09/10 17:40:49;;;;;;;9.97;8.97;;;;;;;;;;4941317;29;21182;-87
2023/09/10 17:43:20;;;;;;;14.87;10.10;;;;;;;;;;4939535;29;21047;-87
2023/09/10 17:45:49;;;;;;;11.10;9.70;;;;;;;;;;4933497;29;20632;-89
2023/09/10 17:48:20;;;;;;;12.20;9.30;;;;;;;;;;4933112;29;20684;-91
2023/09/10 17:50:49;;;;;;;10.67;9.63;;;;;;;;;;4933761;29;20629;-87
2023/09/10 17:53:18;;;;;;;13.30;9.90;;;;;;;;;;4922642;29;20724;-87
2023/09/10 17:55:50;;;;;;;10.40;9.40;;;;;;;;;;4929311;29;20713;-87
2023/09/10 17:58:18;;;;;;;13.37;9.30;;;;;;;;;;4945805;28;20741;-88
2023/09/10 18:00:47;;;;;;;13.57;8.67;;;;;;;;;;4929162;29;20620;-87
2023/09/10 18:03:15;;;;;;;13.00;8.37;;;;;;;;;;4932569;29;20656;-86
2023/09/10 18:05:43;;;;;;;10.47;9.30;;;;;;;;;;4930865;29;20688;-86
2023/09/10 18:08:12;;;;;;;8.03;7.50;;;;;;;;;;4937817;29;20695;-88
2023/09/10 18:10:44;;;;;;;10.97;8.00;;;;;;;;;;4931141;29;20739;-87
2023/09/10 18:13:24;;;;;;;11.43;8.70;;;;;;;;;;4931990;29;20675;-88
2023/09/10 18:15:56;;;;;;;12.27;7.50;;;;;;;;;;5618491;23;20744;-87
2023/09/10 18:18:26;;;;;;;9.60;7.93;;;;;;;;;;4923057;29;20671;-88
2023/09/10 18:46:12;;;;;;;15.57;8.97;;;;;;;;;;5569063;23;20660;-89
2023/09/10 18:55:33;;;;;;;12.07;8.07;;;;;;;;;;5855983;23;20612;-86
2023/09/10 19:04:09;;;;;;;9.33;7.00;;;;;;;;;;5097179;23;20675;-89
2023/09/10 19:06:42;;;;;;;14.17;8.10;;;;;;;;;;4935410;29;20618;-89
2023/09/10 19:09:39;;;;;;;16.00;6.40;;;;;;;;;;5362232;23;20805;-86
2023/09/10 19:12:12;;;;;;;12.33;7.60;;;;;;;;;;5679803;23;20287;-87
2023/09/10 19:14:48;;;;;;;17.47;8.23;;;;;;;;;;4957711;28;20652;-88
2023/09/10 19:17:21;;;;;;;11.43;8.33;;;;;;;;;;4949896;28;20622;-88
2023/09/10 19:19:53;;;;;;;16.80;7.70;;;;;;;;;;4932471;29;20652;-91
2023/09/10 19:22:22;;;;;;;16.73;7.93;;;;;;;;;;4919749;29;20644;-88
2023/09/10 19:24:53;;;;;;;10.10;7.97;;;;;;;;;;4937868;29;20630;-88
2023/09/10 19:27:27;;;;;;;11.73;7.83;;;;;;;;;;4921741;29;20695;-87
2023/09/10 19:29:56;;;;;;;12.50;7.03;;;;;;;;;;4943579;29;20649;-87
2023/09/10 19:32:28;;;;;;;9.03;6.67;;;;;;;;;;4927682;29;20685;-87
2023/09/10 19:34:57;;;;;;;11.20;6.83;;;;;;;;;;4907524;29;20656;-87
2023/09/10 19:37:26;;;;;;;14.73;7.73;;;;;;;;;;4928605;29;20680;-87
2023/09/10 19:39:55;;;;;;;12.10;7.20;;;;;;;;;;4926322;29;20672;-88
2023/09/10 19:42:23;;;;;;;12.63;7.13;;;;;;;;;;4946195;29;20600;-89
2023/09/10 19:44:55;;;;;;;12.30;7.37;;;;;;;;;;4932717;29;20617;-88
2023/09/10 19:47:24;;;;;;;11.53;7.40;;;;;;;;;;4929601;29;20614;-86
2023/09/10 19:49:53;;;;;;;18.13;8.50;;;;;;;;;;4899985;29;20657;-87
2023/09/10 19:52:22;;;;;;;10.43;7.40;;;;;;;;;;4916944;29;20609;-88
2023/09/10 19:54:52;;;;;;;16.67;7.60;;;;;;;;;;4939609;29;20723;-86
2023/09/10 19:57:20;;;;;;;13.80;7.60;;;;;;;;;;4939165;29;21199;-87
2023/09/10 19:59:49;;;;;;;11.00;7.67;;;;;;;;;;4916787;29;20788;-87
2023/09/10 20:02:19;;;;;;;12.23;7.40;;;;;;;;;;4932325;29;20627;-87
2023/09/10 20:04:47;;;;;;;10.57;7.70;;;;;;;;;;4930670;29;20723;-86
2023/09/10 20:07:16;;;;;;;12.13;7.73;;;;;;;;;;4918203;29;20712;-87
2023/09/10 20:09:46;;;;;;;19.80;8.00;;;;;;;;;;4930150;29;20649;-86
2023/09/10 20:12:20;;;;;;;16.27;7.53;;;;;;;;;;4933052;29;20667;-87
2023/09/10 20:14:49;;;;;;;10.63;7.47;;;;;;;;;;4917128;29;20968;-86
2023/09/10 20:17:22;;;;;;;16.13;7.93;;;;;;;;;;4943400;29;20637;-88
2023/09/10 20:19:51;;;;;;;9.13;7.37;;;;;;;;;;4917809;29;20649;-88
2023/09/10 20:22:20;;;;;;;15.13;7.40;;;;;;;;;;4947485;29;20632;-88
2023/09/10 20:24:49;;;;;;;11.03;7.67;;;;;;;;;;4947318;28;20633;-89
2023/09/10 20:27:21;;;;;;;19.10;8.40;;;;;;;;;;4930222;29;20710;-88
2023/09/10 20:29:50;;;;;;;13.47;7.83;;;;;;;;;;4915036;29;20637;-88
2023/09/10 20:32:22;;;;;;;14.93;8.67;;;;;;;;;;4945578;29;20624;-88
2023/09/10 20:34:51;;;;;;;18.53;8.47;;;;;;;;;;4933659;29;20697;-87
2023/09/10 20:37:21;;;;;;;19.33;7.63;;;;;;;;;;4931850;29;20796;-88
2023/09/10 20:39:55;;;;;;;17.80;8.77;;;;;;;;;;4949736;29;20676;-88
2023/09/10 20:42:36;;;;;;;11.43;7.50;;;;;;;;;;4933216;29;20636;-88
2023/09/10 20:45:08;;;;;;;14.10;7.23;;;;;;;;;;4932556;29;20636;-89
2023/09/10 20:47:38;;;;;;;15.13;8.00;;;;;;;;;;4932949;29;20652;-87
2023/09/10 20:50:07;;;;;;;12.10;7.10;;;;;;;;;;4915520;29;20594;-88
2023/09/10 20:52:36;;;;;;;13.40;7.87;;;;;;;;;;4947874;28;20639;-88
2023/09/10 20:55:09;;;;;;;15.63;8.60;;;;;;;;;;4916897;29;20644;-88
2023/09/10 20:57:39;;;;;;;12.40;8.00;;;;;;;;;;4919024;29;20629;-89
2023/09/10 21:00:10;;;;;;;15.40;8.57;;;;;;;;;;4919529;29;20668;-88
2023/09/10 21:02:42;;;;;;;14.20;8.33;;;;;;;;;;4924364;29;20622;-88
2023/09/10 21:05:11;;;;;;;16.10;8.20;;;;;;;;;;4927199;29;20716;-89
2023/09/10 21:07:40;;;;;;;11.00;7.60;;;;;;;;;;4913521;28;20628;-89
2023/09/10 21:10:12;;;;;;;16.70;8.37;;;;;;;;;;4947729;29;20616;-88
2023/09/10 21:12:41;;;;;;;14.30;8.10;;;;;;;;;;4918898;29;20751;-88
2023/09/10 21:15:12;;;;;;;12.27;8.63;;;;;;;;;;4899697;29;20647;-89
2023/09/10 21:17:45;;;;;;;14.03;8.07;;;;;;;;;;4929173;29;20698;-88
2023/09/10 21:20:13;;;;;;;13.70;7.70;;;;;;;;;;4926070;29;20655;-87
2023/09/10 21:22:49;;;;;;;10.93;8.27;;;;;;;;;;4937483;29;20633;-90
2023/09/10 21:25:18;;;;;;;16.47;7.43;;;;;;;;;;4943097;29;20620;-88
2023/09/10 21:27:46;;;;;;;15.07;7.80;;;;;;;;;;4941736;29;20691;-87
2023/09/10 21:30:15;;;;;;;14.13;8.43;;;;;;;;;;4936026;29;20759;-86
2023/09/10 21:32:47;;;;;;;14.97;8.20;;;;;;;;;;4923878;29;20781;-88
2023/09/10 21:35:15;;;;;;;15.80;7.93;;;;;;;;;;4938244;29;21385;-86
2023/09/10 21:37:43;;;;;;;16.33;7.57;;;;;;;;;;4934730;29;21202;-87
2023/09/10 21:40:12;;;;;;;13.03;8.90;;;;;;;;;;4931646;29;20764;-87
2023/09/10 21:42:40;;;;;;;20.03;8.70;;;;;;;;;;4920293;29;20593;-87
2023/09/10 21:45:10;;;;;;;12.10;8.27;;;;;;;;;;4918267;29;20679;-87
2023/09/10 21:47:38;;;;;;;15.13;8.47;;;;;;;;;;4932593;29;20724;-86
2023/09/10 22:05:22;;;;;;;18.90;7.90;;;;;;;;;;4153490;26;20671;-89
2023/09/10 22:07:51;;;;;;;17.47;7.90;;;;;;;;;;4945072;29;20719;-89
2023/09/10 22:10:19;;;;;;;14.23;8.80;;;;;;;;;;4956529;28;20724;-89
2023/09/10 22:12:47;;;;;;;13.10;9.13;;;;;;;;;;4944098;28;20735;-89
2023/09/10 22:15:16;;;;;;;22.10;7.90;;;;;;;;;;4931393;29;20738;-88
2023/09/10 22:17:44;;;;;;;15.30;7.90;;;;;;;;;;4965558;28;21029;-89
2023/09/10 22:20:12;;;;;;;15.80;8.33;;;;;;;;;;4965269;29;20706;-89
2023/09/10 22:22:42;;;;;;;11.47;8.57;;;;;;;;;;4932262;28;20651;-89
2023/09/10 22:25:15;;;;;;;14.23;8.30;;;;;;;;;;4949523;29;20675;-89
2023/09/10 22:27:44;;;;;;;14.20;8.43;;;;;;;;;;4948645;28;20680;-89
2023/09/10 22:30:14;;;;;;;19.60;10.07;;;;;;;;;;4933037;28;20704;-88
2023/09/10 22:32:42;;;;;;;22.20;8.70;;;;;;;;;;4946937;29;20794;-88
2023/09/10 22:35:11;;;;;;;17.33;10.13;;;;;;;;;;4964851;29;20682;-89
2023/09/10 22:37:39;;;;;;;15.67;9.03;;;;;;;;;;4949344;28;20686;-89
2023/09/10 22:40:10;;;;;;;13.53;7.40;;;;;;;;;;4966089;28;20773;-88
2023/09/10 22:42:38;;;;;;;10.73;8.13;;;;;;;;;;4969906;29;20678;-88
2023/09/10 22:45:07;;;;;;;14.10;8.10;;;;;;;;;;4964007;29;20751;-89
2023/09/10 22:47:36;;;;;;;13.00;7.83;;;;;;;;;;4964979;29;20730;-88
2023/09/10 22:50:05;;;;;;;12.87;8.30;;;;;;;;;;4927890;29;20719;-89
2023/09/10 22:52:33;;;;;;;13.17;8.30;;;;;;;;;;4945967;28;20714;-89
2023/09/10 22:55:02;;;;;;;11.10;8.50;;;;;;;;;;4964434;28;21257;-89
2023/09/10 22:57:35;;;;;;;15.57;8.37;;;;;;;;;;4966156;28;20698;-89
2023/09/10 23:00:03;;;;;;;14.70;8.60;;;;;;;;;;4948444;28;20742;-89
2023/09/10 23:02:32;;;;;;;16.43;8.90;;;;;;;;;;4927945;29;20700;-89
2023/09/10 23:05:00;;;;;;;19.23;8.37;;;;;;;;;;4949589;29;20750;-88
2023/09/10 23:07:27;;;;;;;17.43;9.60;;;;;;;;;;4947622;28;20687;-88
2023/09/10 23:09:56;;;;;;;14.13;9.40;;;;;;;;;;4965293;29;20722;-88
2023/09/10 23:12:24;;;;;;;10.10;8.20;;;;;;;;;;4965282;29;20713;-89
2023/09/10 23:14:54;;;;;;;15.67;9.77;;;;;;;;;;4947805;29;20663;-89
2023/09/10 23:17:23;;;;;;;12.47;9.37;;;;;;;;;;4948697;29;20676;-89
2023/09/10 23:19:56;;;;;;;14.00;8.20;;;;;;;;;;4944746;29;20723;-89
2023/09/10 23:22:25;;;;;;;13.50;8.50;;;;;;;;;;4913509;29;20762;-89
2023/09/10 23:24:56;;;;;;;11.17;8.30;;;;;;;;;;4944673;29;20716;-88
2023/09/10 23:27:24;;;;;;;17.63;8.93;;;;;;;;;;4948882;28;20647;-89
2023/09/10 23:29:53;;;;;;;15.10;9.43;;;;;;;;;;4932353;28;20596;-89
2023/09/10 23:32:22;;;;;;;15.77;8.70;;;;;;;;;;4964913;28;20715;-90
2023/09/10 23:34:51;;;;;;;12.33;8.43;;;;;;;;;;4949063;28;20687;-89
2023/09/10 23:37:19;;;;;;;12.70;9.10;;;;;;;;;;4948270;28;20703;-89
2023/09/10 23:39:47;;;;;;;12.83;8.40;;;;;;;;;;4966437;28;21160;-89
2023/09/10 23:42:16;;;;;;;13.10;9.30;;;;;;;;;;4964892;29;20750;-88
2023/09/10 23:44:44;;;;;;;15.83;7.47;;;;;;;;;;4947401;28;20763;-88
2023/09/10 23:47:13;;;;;;;13.50;8.70;;;;;;;;;;4946997;28;20686;-89
2023/09/10 23:49:43;;;;;;;10.93;8.40;;;;;;;;;;4964229;28;20719;-88
2023/09/10 23:52:11;;;;;;;12.57;7.73;;;;;;;;;;4964758;28;20682;-89
2023/09/10 23:54:39;;;;;;;12.30;8.40;;;;;;;;;;4948056;28;20710;-90
2023/09/10 23:57:08;;;;;;;12.90;8.80;;;;;;;;;;4965492;28;21265;-88
2023/09/10 23:59:36;;;;;;;11.47;8.80;;;;;;;;;;4948909;28;20698;-88
